Terminal Aerodrome Forecast
Issued by NWS Charleston, WV

Current Version | Previous Version | Text Only | Print | Product List | Glossary Off
Versions: 1 2 3 4 5 6 7 8 9 10 11 12 13 14 15 16 17 18 19 20 21 22 23 24 25 26 27 28 29

778
FTUS41 KRLX 172350
TAFEKN
TAF
KEKN 172350Z 1800/1824 24010G18KT P6SM SCT025
     FM180100 25010G18KT P6SM OVC015
      TEMPO 1801/1805 SCT025 BKN035
     FM180500 26009G20KT P6SM OVC010
     FM180700 26009G18KT P6SM OVC008
     FM182000 28008G14KT P6SM BKN008
     FM182200 28006KT P6SM BKN008=

USA.gov is the U.S. government's official web portal to all federal, state and local government web resources and services.